sensor_id;sensor_type;location;lat;lon;timestamp;P1;durP1;ratioP1;P2;durP2;ratioP2
30605;SDS011;17371;51.328;3.860;2022-08-25T00:01:34;18.57;;;14.97;;
30605;SDS011;17371;51.328;3.860;2022-08-25T00:04:01;19.95;;;15.95;;
30605;SDS011;17371;51.328;3.860;2022-08-25T00:06:28;20.88;;;15.93;;
30605;SDS011;17371;51.328;3.860;2022-08-25T00:08:54;22.20;;;16.10;;
30605;SDS011;17371;51.328;3.860;2022-08-25T00:11:22;19.08;;;15.88;;
30605;SDS011;17371;51.328;3.860;2022-08-25T00:13:53;19.50;;;16.98;;
30605;SDS011;17371;51.328;3.860;2022-08-25T00:16:21;23.42;;;17.40;;
30605;SDS011;17371;51.328;3.860;2022-08-25T00:18:48;19.00;;;17.00;;
30605;SDS011;17371;51.328;3.860;2022-08-25T00:21:15;20.80;;;17.50;;
30605;SDS011;17371;51.328;3.860;2022-08-25T00:23:40;21.75;;;17.63;;
30605;SDS011;17371;51.328;3.860;2022-08-25T00:26:08;21.38;;;17.38;;
30605;SDS011;17371;51.328;3.860;2022-08-25T00:28:34;23.60;;;18.47;;
30605;SDS011;17371;51.328;3.860;2022-08-25T00:30:59;22.13;;;17.45;;
30605;SDS011;17371;51.328;3.860;2022-08-25T00:33:25;22.63;;;18.17;;
30605;SDS011;17371;51.328;3.860;2022-08-25T00:35:50;22.58;;;19.20;;
30605;SDS011;17371;51.328;3.860;2022-08-25T00:38:16;21.60;;;17.40;;
30605;SDS011;17371;51.328;3.860;2022-08-25T00:40:41;21.90;;;17.53;;
30605;SDS011;17371;51.328;3.860;2022-08-25T00:43:08;21.53;;;17.63;;
30605;SDS011;17371;51.328;3.860;2022-08-25T00:45:34;22.08;;;19.23;;
30605;SDS011;17371;51.328;3.860;2022-08-25T00:48:00;20.77;;;18.50;;
30605;SDS011;17371;51.328;3.860;2022-08-25T00:50:26;21.73;;;19.33;;
30605;SDS011;17371;51.328;3.860;2022-08-25T00:52:53;23.73;;;18.70;;
30605;SDS011;17371;51.328;3.860;2022-08-25T00:55:21;21.85;;;18.05;;
30605;SDS011;17371;51.328;3.860;2022-08-25T00:57:49;21.20;;;17.75;;
30605;SDS011;17371;51.328;3.860;2022-08-25T01:00:19;23.38;;;18.42;;
30605;SDS011;17371;51.328;3.860;2022-08-25T01:02:46;21.58;;;18.48;;
30605;SDS011;17371;51.328;3.860;2022-08-25T01:05:12;22.60;;;18.40;;
30605;SDS011;17371;51.328;3.860;2022-08-25T01:07:37;22.60;;;18.93;;
30605;SDS011;17371;51.328;3.860;2022-08-25T01:10:04;23.25;;;17.85;;
30605;SDS011;17371;51.328;3.860;2022-08-25T01:12:30;24.98;;;19.55;;
30605;SDS011;17371;51.328;3.860;2022-08-25T01:14:56;21.43;;;18.27;;
30605;SDS011;17371;51.328;3.860;2022-08-25T01:17:23;21.37;;;17.80;;
30605;SDS011;17371;51.328;3.860;2022-08-25T01:19:48;24.92;;;19.58;;
30605;SDS011;17371;51.328;3.860;2022-08-25T01:22:15;22.53;;;19.30;;
30605;SDS011;17371;51.328;3.860;2022-08-25T01:24:41;24.33;;;18.83;;
30605;SDS011;17371;51.328;3.860;2022-08-25T01:27:09;23.35;;;18.48;;
30605;SDS011;17371;51.328;3.860;2022-08-25T01:29:36;21.27;;;17.90;;
30605;SDS011;17371;51.328;3.860;2022-08-25T01:32:03;22.08;;;18.13;;
30605;SDS011;17371;51.328;3.860;2022-08-25T01:34:32;23.75;;;19.48;;
30605;SDS011;17371;51.328;3.860;2022-08-25T01:36:59;22.15;;;16.67;;
30605;SDS011;17371;51.328;3.860;2022-08-25T01:39:27;22.60;;;18.10;;
30605;SDS011;17371;51.328;3.860;2022-08-25T01:41:58;22.27;;;17.13;;
30605;SDS011;17371;51.328;3.860;2022-08-25T01:44:31;23.42;;;18.23;;
30605;SDS011;17371;51.328;3.860;2022-08-25T01:46:58;19.52;;;16.80;;
30605;SDS011;17371;51.328;3.860;2022-08-25T01:49:23;21.50;;;17.70;;
30605;SDS011;17371;51.328;3.860;2022-08-25T01:51:50;20.33;;;17.70;;
30605;SDS011;17371;51.328;3.860;2022-08-25T01:54:17;22.63;;;18.33;;
30605;SDS011;17371;51.328;3.860;2022-08-25T01:56:43;25.17;;;18.10;;
30605;SDS011;17371;51.328;3.860;2022-08-25T01:59:09;22.77;;;17.67;;
30605;SDS011;17371;51.328;3.860;2022-08-25T02:01:34;23.20;;;17.17;;
30605;SDS011;17371;51.328;3.860;2022-08-25T02:04:00;21.80;;;18.63;;
30605;SDS011;17371;51.328;3.860;2022-08-25T02:06:26;23.90;;;18.80;;
30605;SDS011;17371;51.328;3.860;2022-08-25T02:08:54;23.55;;;18.73;;
30605;SDS011;17371;51.328;3.860;2022-08-25T02:11:21;24.15;;;18.73;;
30605;SDS011;17371;51.328;3.860;2022-08-25T02:13:48;21.37;;;17.60;;
30605;SDS011;17371;51.328;3.860;2022-08-25T02:16:15;23.27;;;17.73;;
30605;SDS011;17371;51.328;3.860;2022-08-25T02:18:42;24.08;;;18.55;;
30605;SDS011;17371;51.328;3.860;2022-08-25T02:21:08;21.93;;;17.23;;
30605;SDS011;17371;51.328;3.860;2022-08-25T02:23:33;20.10;;;16.80;;
30605;SDS011;17371;51.328;3.860;2022-08-25T02:25:58;23.92;;;16.75;;
30605;SDS011;17371;51.328;3.860;2022-08-25T02:28:24;21.07;;;16.17;;
30605;SDS011;17371;51.328;3.860;2022-08-25T02:30:51;21.43;;;16.10;;
30605;SDS011;17371;51.328;3.860;2022-08-25T02:33:16;18.77;;;14.57;;
30605;SDS011;17371;51.328;3.860;2022-08-25T02:35:41;19.30;;;14.97;;
30605;SDS011;17371;51.328;3.860;2022-08-25T02:38:07;19.47;;;16.23;;
30605;SDS011;17371;51.328;3.860;2022-08-25T02:40:32;18.10;;;15.67;;
30605;SDS011;17371;51.328;3.860;2022-08-25T02:42:58;19.48;;;15.23;;
30605;SDS011;17371;51.328;3.860;2022-08-25T02:45:23;19.23;;;15.50;;
30605;SDS011;17371;51.328;3.860;2022-08-25T02:47:50;19.30;;;15.53;;
30605;SDS011;17371;51.328;3.860;2022-08-25T02:50:15;22.77;;;16.00;;
30605;SDS011;17371;51.328;3.860;2022-08-25T02:52:41;20.50;;;16.60;;
30605;SDS011;17371;51.328;3.860;2022-08-25T02:55:07;19.33;;;17.23;;
30605;SDS011;17371;51.328;3.860;2022-08-25T02:57:34;19.80;;;16.30;;
30605;SDS011;17371;51.328;3.860;2022-08-25T02:59:59;22.63;;;17.20;;
30605;SDS011;17371;51.328;3.860;2022-08-25T03:02:25;22.77;;;16.40;;
30605;SDS011;17371;51.328;3.860;2022-08-25T03:04:52;23.50;;;17.53;;
30605;SDS011;17371;51.328;3.860;2022-08-25T03:07:18;21.25;;;17.83;;
30605;SDS011;17371;51.328;3.860;2022-08-25T03:09:44;21.08;;;17.33;;
30605;SDS011;17371;51.328;3.860;2022-08-25T03:12:10;22.50;;;17.83;;
30605;SDS011;17371;51.328;3.860;2022-08-25T03:14:36;22.87;;;18.27;;
30605;SDS011;17371;51.328;3.860;2022-08-25T03:17:01;19.87;;;17.67;;
30605;SDS011;17371;51.328;3.860;2022-08-25T03:19:27;23.30;;;17.88;;
30605;SDS011;17371;51.328;3.860;2022-08-25T03:21:53;22.47;;;18.17;;
30605;SDS011;17371;51.328;3.860;2022-08-25T03:24:19;22.60;;;17.17;;
30605;SDS011;17371;51.328;3.860;2022-08-25T03:26:44;22.67;;;17.47;;
30605;SDS011;17371;51.328;3.860;2022-08-25T03:29:10;22.23;;;16.00;;
30605;SDS011;17371;51.328;3.860;2022-08-25T03:31:35;18.50;;;15.80;;
30605;SDS011;17371;51.328;3.860;2022-08-25T03:34:01;20.02;;;16.33;;
30605;SDS011;17371;51.328;3.860;2022-08-25T03:36:27;21.07;;;16.07;;
30605;SDS011;17371;51.328;3.860;2022-08-25T03:38:54;19.95;;;15.38;;
30605;SDS011;17371;51.328;3.860;2022-08-25T03:41:20;20.55;;;15.15;;
30605;SDS011;17371;51.328;3.860;2022-08-25T03:43:47;19.03;;;15.27;;
30605;SDS011;17371;51.328;3.860;2022-08-25T03:46:17;18.98;;;15.60;;
30605;SDS011;17371;51.328;3.860;2022-08-25T03:48:43;21.35;;;16.23;;
30605;SDS011;17371;51.328;3.860;2022-08-25T03:51:08;19.67;;;16.10;;
30605;SDS011;17371;51.328;3.860;2022-08-25T03:53:34;17.33;;;14.68;;
30605;SDS011;17371;51.328;3.860;2022-08-25T03:56:00;20.60;;;15.75;;
30605;SDS011;17371;51.328;3.860;2022-08-25T03:58:26;19.05;;;15.20;;
30605;SDS011;17371;51.328;3.860;2022-08-25T04:00:51;19.08;;;15.98;;
30605;SDS011;17371;51.328;3.860;2022-08-25T04:03:17;23.83;;;17.33;;
30605;SDS011;17371;51.328;3.860;2022-08-25T04:05:42;19.13;;;16.17;;
30605;SDS011;17371;51.328;3.860;2022-08-25T04:08:08;21.77;;;16.70;;
30605;SDS011;17371;51.328;3.860;2022-08-25T04:10:33;26.30;;;18.50;;
30605;SDS011;17371;51.328;3.860;2022-08-25T04:13:00;25.75;;;18.50;;
30605;SDS011;17371;51.328;3.860;2022-08-25T04:15:25;23.88;;;18.90;;
30605;SDS011;17371;51.328;3.860;2022-08-25T04:17:50;23.70;;;17.30;;
30605;SDS011;17371;51.328;3.860;2022-08-25T04:20:16;24.37;;;18.17;;
30605;SDS011;17371;51.328;3.860;2022-08-25T04:22:41;25.47;;;18.07;;
30605;SDS011;17371;51.328;3.860;2022-08-25T04:25:07;22.30;;;18.87;;
30605;SDS011;17371;51.328;3.860;2022-08-25T04:27:33;24.00;;;18.20;;
30605;SDS011;17371;51.328;3.860;2022-08-25T04:30:01;24.50;;;19.05;;
30605;SDS011;17371;51.328;3.860;2022-08-25T04:32:27;25.88;;;19.00;;
30605;SDS011;17371;51.328;3.860;2022-08-25T04:34:52;24.60;;;18.93;;
30605;SDS011;17371;51.328;3.860;2022-08-25T04:37:17;27.40;;;19.70;;
30605;SDS011;17371;51.328;3.860;2022-08-25T04:39:43;26.87;;;20.30;;
30605;SDS011;17371;51.328;3.860;2022-08-25T04:42:08;24.77;;;20.05;;
30605;SDS011;17371;51.328;3.860;2022-08-25T04:44:34;25.67;;;20.53;;
30605;SDS011;17371;51.328;3.860;2022-08-25T04:47:00;27.20;;;21.63;;
30605;SDS011;17371;51.328;3.860;2022-08-25T04:49:26;27.02;;;21.15;;
30605;SDS011;17371;51.328;3.860;2022-08-25T04:51:51;27.60;;;20.50;;
30605;SDS011;17371;51.328;3.860;2022-08-25T04:54:17;26.40;;;20.80;;
30605;SDS011;17371;51.328;3.860;2022-08-25T04:56:43;28.35;;;21.88;;
30605;SDS011;17371;51.328;3.860;2022-08-25T04:59:09;25.87;;;21.27;;
30605;SDS011;17371;51.328;3.860;2022-08-25T05:01:35;28.80;;;21.63;;
30605;SDS011;17371;51.328;3.860;2022-08-25T05:04:03;27.83;;;22.20;;
30605;SDS011;17371;51.328;3.860;2022-08-25T05:06:29;28.02;;;21.85;;
30605;SDS011;17371;51.328;3.860;2022-08-25T05:08:55;28.00;;;21.87;;
30605;SDS011;17371;51.328;3.860;2022-08-25T05:11:22;29.45;;;22.70;;
30605;SDS011;17371;51.328;3.860;2022-08-25T05:13:48;30.73;;;22.77;;
30605;SDS011;17371;51.328;3.860;2022-08-25T05:16:15;27.08;;;22.20;;
30605;SDS011;17371;51.328;3.860;2022-08-25T05:18:42;31.13;;;23.75;;
30605;SDS011;17371;51.328;3.860;2022-08-25T05:21:10;32.20;;;23.63;;
30605;SDS011;17371;51.328;3.860;2022-08-25T05:23:36;30.38;;;22.70;;
30605;SDS011;17371;51.328;3.860;2022-08-25T05:26:03;28.88;;;23.30;;
30605;SDS011;17371;51.328;3.860;2022-08-25T05:28:30;29.80;;;21.80;;
30605;SDS011;17371;51.328;3.860;2022-08-25T05:30:56;28.83;;;23.60;;
30605;SDS011;17371;51.328;3.860;2022-08-25T05:33:22;25.20;;;21.40;;
30605;SDS011;17371;51.328;3.860;2022-08-25T05:35:48;26.80;;;21.50;;
30605;SDS011;17371;51.328;3.860;2022-08-25T05:38:14;28.50;;;21.70;;
30605;SDS011;17371;51.328;3.860;2022-08-25T05:40:40;27.67;;;21.07;;
30605;SDS011;17371;51.328;3.860;2022-08-25T05:43:05;28.65;;;20.50;;
30605;SDS011;17371;51.328;3.860;2022-08-25T05:45:31;24.57;;;20.10;;
30605;SDS011;17371;51.328;3.860;2022-08-25T05:47:56;23.67;;;20.23;;
30605;SDS011;17371;51.328;3.860;2022-08-25T05:50:21;27.87;;;19.40;;
30605;SDS011;17371;51.328;3.860;2022-08-25T05:52:47;22.30;;;19.20;;
30605;SDS011;17371;51.328;3.860;2022-08-25T05:55:13;21.00;;;18.63;;
30605;SDS011;17371;51.328;3.860;2022-08-25T05:57:39;24.20;;;19.20;;
30605;SDS011;17371;51.328;3.860;2022-08-25T06:00:05;23.20;;;19.07;;
30605;SDS011;17371;51.328;3.860;2022-08-25T06:02:32;22.95;;;17.92;;
30605;SDS011;17371;51.328;3.860;2022-08-25T06:04:58;24.08;;;18.63;;
30605;SDS011;17371;51.328;3.860;2022-08-25T06:07:23;25.00;;;18.08;;
30605;SDS011;17371;51.328;3.860;2022-08-25T06:09:49;23.23;;;18.57;;
30605;SDS011;17371;51.328;3.860;2022-08-25T06:12:16;21.90;;;18.13;;
30605;SDS011;17371;51.328;3.860;2022-08-25T06:14:42;24.95;;;18.05;;
30605;SDS011;17371;51.328;3.860;2022-08-25T06:17:07;23.40;;;19.40;;
30605;SDS011;17371;51.328;3.860;2022-08-25T06:19:33;19.87;;;17.73;;
30605;SDS011;17371;51.328;3.860;2022-08-25T06:21:58;24.47;;;17.57;;
30605;SDS011;17371;51.328;3.860;2022-08-25T06:24:24;22.53;;;17.03;;
30605;SDS011;17371;51.328;3.860;2022-08-25T06:26:50;22.67;;;16.67;;
30605;SDS011;17371;51.328;3.860;2022-08-25T06:29:17;20.17;;;15.90;;
30605;SDS011;17371;51.328;3.860;2022-08-25T06:31:42;19.85;;;15.68;;
30605;SDS011;17371;51.328;3.860;2022-08-25T06:34:08;19.03;;;15.83;;
30605;SDS011;17371;51.328;3.860;2022-08-25T06:36:34;20.23;;;15.75;;
30605;SDS011;17371;51.328;3.860;2022-08-25T06:39:00;17.90;;;15.80;;
30605;SDS011;17371;51.328;3.860;2022-08-25T06:41:25;23.90;;;16.03;;
30605;SDS011;17371;51.328;3.860;2022-08-25T06:43:50;20.77;;;15.60;;
30605;SDS011;17371;51.328;3.860;2022-08-25T06:46:19;17.87;;;15.63;;
30605;SDS011;17371;51.328;3.860;2022-08-25T06:48:45;27.20;;;16.20;;
30605;SDS011;17371;51.328;3.860;2022-08-25T06:51:11;23.58;;;15.88;;
30605;SDS011;17371;51.328;3.860;2022-08-25T06:53:38;20.15;;;15.00;;
30605;SDS011;17371;51.328;3.860;2022-08-25T06:56:04;19.33;;;14.87;;
30605;SDS011;17371;51.328;3.860;2022-08-25T06:58:30;19.35;;;14.63;;
30605;SDS011;17371;51.328;3.860;2022-08-25T07:00:55;21.30;;;15.10;;
30605;SDS011;17371;51.328;3.860;2022-08-25T07:03:22;16.60;;;13.73;;
30605;SDS011;17371;51.328;3.860;2022-08-25T07:05:51;15.47;;;12.47;;
30605;SDS011;17371;51.328;3.860;2022-08-25T07:08:16;15.70;;;13.27;;
30605;SDS011;17371;51.328;3.860;2022-08-25T07:10:42;18.57;;;12.80;;
30605;SDS011;17371;51.328;3.860;2022-08-25T07:13:07;16.88;;;11.93;;
30605;SDS011;17371;51.328;3.860;2022-08-25T07:15:36;14.27;;;11.60;;
30605;SDS011;17371;51.328;3.860;2022-08-25T07:18:02;14.75;;;11.93;;
30605;SDS011;17371;51.328;3.860;2022-08-25T07:20:28;15.10;;;10.80;;
30605;SDS011;17371;51.328;3.860;2022-08-25T07:22:54;15.68;;;11.50;;
30605;SDS011;17371;51.328;3.860;2022-08-25T07:25:19;16.60;;;11.43;;
30605;SDS011;17371;51.328;3.860;2022-08-25T07:27:45;18.87;;;11.13;;
30605;SDS011;17371;51.328;3.860;2022-08-25T07:30:11;12.40;;;10.90;;
30605;SDS011;17371;51.328;3.860;2022-08-25T07:32:36;15.05;;;10.30;;
30605;SDS011;17371;51.328;3.860;2022-08-25T07:35:02;15.27;;;10.27;;
30605;SDS011;17371;51.328;3.860;2022-08-25T07:37:29;14.02;;;8.65;;
30605;SDS011;17371;51.328;3.860;2022-08-25T07:39:54;17.30;;;9.30;;
30605;SDS011;17371;51.328;3.860;2022-08-25T07:42:20;12.00;;;8.60;;
30605;SDS011;17371;51.328;3.860;2022-08-25T07:44:45;11.63;;;8.00;;
30605;SDS011;17371;51.328;3.860;2022-08-25T07:47:11;12.70;;;8.30;;
30605;SDS011;17371;51.328;3.860;2022-08-25T07:49:36;13.65;;;7.38;;
30605;SDS011;17371;51.328;3.860;2022-08-25T07:52:02;10.97;;;6.83;;
30605;SDS011;17371;51.328;3.860;2022-08-25T07:54:29;12.82;;;7.10;;
30605;SDS011;17371;51.328;3.860;2022-08-25T07:56:54;16.87;;;6.60;;
30605;SDS011;17371;51.328;3.860;2022-08-25T07:59:19;10.98;;;6.38;;
30605;SDS011;17371;51.328;3.860;2022-08-25T08:01:45;10.50;;;6.23;;
30605;SDS011;17371;51.328;3.860;2022-08-25T08:04:10;9.70;;;6.10;;
30605;SDS011;17371;51.328;3.860;2022-08-25T08:06:35;12.70;;;6.87;;
30605;SDS011;17371;51.328;3.860;2022-08-25T08:09:03;12.25;;;6.80;;
30605;SDS011;17371;51.328;3.860;2022-08-25T08:11:30;11.60;;;7.60;;
30605;SDS011;17371;51.328;3.860;2022-08-25T08:13:57;14.23;;;8.07;;
30605;SDS011;17371;51.328;3.860;2022-08-25T08:16:23;14.73;;;9.13;;
30605;SDS011;17371;51.328;3.860;2022-08-25T08:18:50;15.68;;;8.27;;
30605;SDS011;17371;51.328;3.860;2022-08-25T08:21:16;13.00;;;7.40;;
30605;SDS011;17371;51.328;3.860;2022-08-25T08:23:43;15.05;;;7.88;;
30605;SDS011;17371;51.328;3.860;2022-08-25T08:26:09;15.53;;;8.93;;
30605;SDS011;17371;51.328;3.860;2022-08-25T08:28:35;15.17;;;8.60;;
30605;SDS011;17371;51.328;3.860;2022-08-25T08:31:01;18.33;;;8.52;;
30605;SDS011;17371;51.328;3.860;2022-08-25T08:33:27;24.75;;;11.80;;
30605;SDS011;17371;51.328;3.860;2022-08-25T08:35:56;23.50;;;13.83;;
30605;SDS011;17371;51.328;3.860;2022-08-25T08:38:23;17.23;;;11.00;;
30605;SDS011;17371;51.328;3.860;2022-08-25T08:40:54;29.03;;;9.17;;
30605;SDS011;17371;51.328;3.860;2022-08-25T08:43:41;24.75;;;7.90;;
30605;SDS011;17371;51.328;3.860;2022-08-25T08:46:07;30.38;;;7.90;;
30605;SDS011;17371;51.328;3.860;2022-08-25T08:51:20;32.95;;;7.60;;
30605;SDS011;17371;51.328;3.860;2022-08-25T08:53:48;24.60;;;6.40;;
30605;SDS011;17371;51.328;3.860;2022-08-25T08:56:18;22.48;;;6.57;;
30605;SDS011;17371;51.328;3.860;2022-08-25T08:58:47;22.30;;;6.40;;
30605;SDS011;17371;51.328;3.860;2022-08-25T09:01:15;23.02;;;7.10;;
30605;SDS011;17371;51.328;3.860;2022-08-25T09:03:43;22.58;;;5.95;;
30605;SDS011;17371;51.328;3.860;2022-08-25T09:06:13;22.37;;;6.13;;
30605;SDS011;17371;51.328;3.860;2022-08-25T09:08:42;21.73;;;6.78;;
30605;SDS011;17371;51.328;3.860;2022-08-25T09:11:09;41.47;;;5.55;;
30605;SDS011;17371;51.328;3.860;2022-08-25T09:13:44;10.53;;;4.73;;
30605;SDS011;17371;51.328;3.860;2022-08-25T09:16:23;26.65;;;5.55;;
30605;SDS011;17371;51.328;3.860;2022-08-25T09:18:55;15.95;;;5.03;;
30605;SDS011;17371;51.328;3.860;2022-08-25T09:21:29;14.10;;;4.25;;
30605;SDS011;17371;51.328;3.860;2022-08-25T09:24:02;15.93;;;4.40;;
30605;SDS011;17371;51.328;3.860;2022-08-25T09:26:37;16.63;;;4.23;;
30605;SDS011;17371;51.328;3.860;2022-08-25T09:29:06;18.73;;;4.50;;
30605;SDS011;17371;51.328;3.860;2022-08-25T09:31:33;10.50;;;4.30;;
30605;SDS011;17371;51.328;3.860;2022-08-25T09:34:01;15.23;;;4.03;;
30605;SDS011;17371;51.328;3.860;2022-08-25T09:36:27;14.60;;;3.80;;
30605;SDS011;17371;51.328;3.860;2022-08-25T09:38:53;13.27;;;3.57;;
30605;SDS011;17371;51.328;3.860;2022-08-25T09:41:39;11.03;;;4.13;;
30605;SDS011;17371;51.328;3.860;2022-08-25T09:44:16;14.38;;;3.55;;
30605;SDS011;17371;51.328;3.860;2022-08-25T09:46:52;11.32;;;3.80;;
30605;SDS011;17371;51.328;3.860;2022-08-25T09:49:19;11.02;;;3.42;;
30605;SDS011;17371;51.328;3.860;2022-08-25T09:51:45;10.73;;;3.50;;
30605;SDS011;17371;51.328;3.860;2022-08-25T09:54:15;10.30;;;3.27;;
30605;SDS011;17371;51.328;3.860;2022-08-25T09:56:47;12.80;;;3.10;;
30605;SDS011;17371;51.328;3.860;2022-08-25T09:59:20;8.98;;;3.60;;
30605;SDS011;17371;51.328;3.860;2022-08-25T10:01:47;13.00;;;3.47;;
30605;SDS011;17371;51.328;3.860;2022-08-25T10:04:12;18.85;;;4.38;;
30605;SDS011;17371;51.328;3.860;2022-08-25T10:06:41;9.37;;;3.83;;
30605;SDS011;17371;51.328;3.860;2022-08-25T10:09:09;13.70;;;4.35;;
30605;SDS011;17371;51.328;3.860;2022-08-25T10:11:39;12.70;;;4.20;;
30605;SDS011;17371;51.328;3.860;2022-08-25T10:14:15;10.02;;;3.72;;
30605;SDS011;17371;51.328;3.860;2022-08-25T10:16:45;11.82;;;3.25;;
30605;SDS011;17371;51.328;3.860;2022-08-25T10:19:12;11.90;;;2.90;;
30605;SDS011;17371;51.328;3.860;2022-08-25T10:21:39;11.95;;;4.00;;
30605;SDS011;17371;51.328;3.860;2022-08-25T10:24:05;10.23;;;4.40;;
30605;SDS011;17371;51.328;3.860;2022-08-25T10:26:35;12.52;;;4.07;;
30605;SDS011;17371;51.328;3.860;2022-08-25T10:29:10;9.93;;;3.38;;
30605;SDS011;17371;51.328;3.860;2022-08-25T10:31:44;13.00;;;3.70;;
30605;SDS011;17371;51.328;3.860;2022-08-25T10:34:16;9.98;;;2.50;;
30605;SDS011;17371;51.328;3.860;2022-08-25T10:36:48;15.63;;;3.42;;
30605;SDS011;17371;51.328;3.860;2022-08-25T10:39:24;10.13;;;3.28;;
30605;SDS011;17371;51.328;3.860;2022-08-25T10:41:59;6.68;;;2.63;;
30605;SDS011;17371;51.328;3.860;2022-08-25T10:44:29;6.17;;;2.43;;
30605;SDS011;17371;51.328;3.860;2022-08-25T10:47:02;5.82;;;2.10;;
30605;SDS011;17371;51.328;3.860;2022-08-25T10:49:36;3.55;;;1.85;;
30605;SDS011;17371;51.328;3.860;2022-08-25T10:52:06;12.43;;;5.38;;
30605;SDS011;17371;51.328;3.860;2022-08-25T10:54:39;11.07;;;6.50;;
30605;SDS011;17371;51.328;3.860;2022-08-25T10:57:10;11.83;;;6.50;;
30605;SDS011;17371;51.328;3.860;2022-08-25T10:59:44;17.17;;;8.88;;
30605;SDS011;17371;51.328;3.860;2022-08-25T11:02:29;14.98;;;11.73;;
30605;SDS011;17371;51.328;3.860;2022-08-25T11:05:02;18.20;;;12.57;;
30605;SDS011;17371;51.328;3.860;2022-08-25T11:07:30;21.35;;;13.95;;
30605;SDS011;17371;51.328;3.860;2022-08-25T11:09:59;25.83;;;14.07;;
30605;SDS011;17371;51.328;3.860;2022-08-25T11:12:29;23.77;;;16.00;;
30605;SDS011;17371;51.328;3.860;2022-08-25T11:14:56;22.35;;;16.20;;
30605;SDS011;17371;51.328;3.860;2022-08-25T11:17:23;22.45;;;15.60;;
30605;SDS011;17371;51.328;3.860;2022-08-25T11:19:51;23.83;;;16.98;;
30605;SDS011;17371;51.328;3.860;2022-08-25T11:22:20;24.73;;;17.70;;
30605;SDS011;17371;51.328;3.860;2022-08-25T11:24:51;20.92;;;16.05;;
30605;SDS011;17371;51.328;3.860;2022-08-25T11:27:23;28.67;;;20.98;;
30605;SDS011;17371;51.328;3.860;2022-08-25T11:29:55;27.60;;;23.17;;
30605;SDS011;17371;51.328;3.860;2022-08-25T11:32:24;31.88;;;26.63;;
30605;SDS011;17371;51.328;3.860;2022-08-25T11:34:50;33.57;;;27.57;;
30605;SDS011;17371;51.328;3.860;2022-08-25T11:37:18;40.70;;;30.38;;
30605;SDS011;17371;51.328;3.860;2022-08-25T11:40:08;37.55;;;30.20;;
30605;SDS011;17371;51.328;3.860;2022-08-25T11:42:42;43.47;;;30.55;;
30605;SDS011;17371;51.328;3.860;2022-08-25T11:45:19;38.53;;;26.15;;
30605;SDS011;17371;51.328;3.860;2022-08-25T11:47:58;31.95;;;28.23;;
30605;SDS011;17371;51.328;3.860;2022-08-25T11:50:33;37.08;;;30.85;;
30605;SDS011;17371;51.328;3.860;2022-08-25T11:53:02;39.33;;;31.60;;
30605;SDS011;17371;51.328;3.860;2022-08-25T11:55:47;38.22;;;32.53;;
30605;SDS011;17371;51.328;3.860;2022-08-25T11:58:16;35.28;;;31.25;;
30605;SDS011;17371;51.328;3.860;2022-08-25T12:00:47;37.65;;;31.73;;
30605;SDS011;17371;51.328;3.860;2022-08-25T12:06:15;40.67;;;33.20;;
30605;SDS011;17371;51.328;3.860;2022-08-25T12:11:49;38.42;;;30.17;;
30605;SDS011;17371;51.328;3.860;2022-08-25T12:14:33;40.90;;;30.25;;
30605;SDS011;17371;51.328;3.860;2022-08-25T12:17:16;40.35;;;31.25;;
30605;SDS011;17371;51.328;3.860;2022-08-25T12:19:52;35.20;;;29.05;;
30605;SDS011;17371;51.328;3.860;2022-08-25T12:22:37;35.60;;;29.77;;
30605;SDS011;17371;51.328;3.860;2022-08-25T12:25:06;33.60;;;28.42;;
30605;SDS011;17371;51.328;3.860;2022-08-25T12:27:36;29.95;;;24.85;;
30605;SDS011;17371;51.328;3.860;2022-08-25T12:30:12;26.40;;;21.80;;
30605;SDS011;17371;51.328;3.860;2022-08-25T12:32:46;30.52;;;22.17;;
30605;SDS011;17371;51.328;3.860;2022-08-25T12:35:25;29.83;;;23.48;;
30605;SDS011;17371;51.328;3.860;2022-08-25T12:37:56;28.70;;;23.48;;
30605;SDS011;17371;51.328;3.860;2022-08-25T12:40:24;28.90;;;23.08;;
30605;SDS011;17371;51.328;3.860;2022-08-25T12:42:59;29.63;;;23.30;;
30605;SDS011;17371;51.328;3.860;2022-08-25T12:45:34;22.63;;;19.23;;
30605;SDS011;17371;51.328;3.860;2022-08-25T12:51:18;24.33;;;18.00;;
30605;SDS011;17371;51.328;3.860;2022-08-25T12:53:45;28.08;;;19.85;;
30605;SDS011;17371;51.328;3.860;2022-08-25T12:56:22;31.45;;;20.95;;
30605;SDS011;17371;51.328;3.860;2022-08-25T12:58:53;24.97;;;19.97;;
30605;SDS011;17371;51.328;3.860;2022-08-25T13:01:22;26.98;;;20.73;;
30605;SDS011;17371;51.328;3.860;2022-08-25T13:03:59;24.90;;;19.05;;
30605;SDS011;17371;51.328;3.860;2022-08-25T13:06:56;23.80;;;20.48;;
30605;SDS011;17371;51.328;3.860;2022-08-25T13:12:32;21.60;;;17.17;;
30605;SDS011;17371;51.328;3.860;2022-08-25T13:15:01;24.67;;;18.33;;
30605;SDS011;17371;51.328;3.860;2022-08-25T13:17:28;26.73;;;18.23;;
30605;SDS011;17371;51.328;3.860;2022-08-25T13:20:11;22.65;;;17.98;;
30605;SDS011;17371;51.328;3.860;2022-08-25T13:22:39;24.40;;;18.02;;
30605;SDS011;17371;51.328;3.860;2022-08-25T13:25:05;25.42;;;19.58;;
30605;SDS011;17371;51.328;3.860;2022-08-25T13:27:31;25.33;;;20.53;;
30605;SDS011;17371;51.328;3.860;2022-08-25T13:29:58;27.43;;;20.27;;
30605;SDS011;17371;51.328;3.860;2022-08-25T13:32:25;28.65;;;22.85;;
30605;SDS011;17371;51.328;3.860;2022-08-25T13:34:58;30.08;;;22.88;;
30605;SDS011;17371;51.328;3.860;2022-08-25T13:37:32;28.30;;;21.23;;
30605;SDS011;17371;51.328;3.860;2022-08-25T13:40:09;31.37;;;22.63;;
30605;SDS011;17371;51.328;3.860;2022-08-25T13:42:36;32.53;;;22.40;;
30605;SDS011;17371;51.328;3.860;2022-08-25T13:45:02;27.58;;;21.02;;
30605;SDS011;17371;51.328;3.860;2022-08-25T13:47:33;28.33;;;22.23;;
30605;SDS011;17371;51.328;3.860;2022-08-25T13:50:12;29.75;;;20.13;;
30605;SDS011;17371;51.328;3.860;2022-08-25T13:52:40;27.25;;;22.52;;
30605;SDS011;17371;51.328;3.860;2022-08-25T13:55:05;33.90;;;24.67;;
30605;SDS011;17371;51.328;3.860;2022-08-25T13:57:32;32.05;;;25.40;;
30605;SDS011;17371;51.328;3.860;2022-08-25T13:59:59;36.63;;;24.87;;
30605;SDS011;17371;51.328;3.860;2022-08-25T14:02:37;31.33;;;24.95;;
30605;SDS011;17371;51.328;3.860;2022-08-25T14:05:06;31.48;;;24.85;;
30605;SDS011;17371;51.328;3.860;2022-08-25T14:07:32;29.15;;;23.30;;
30605;SDS011;17371;51.328;3.860;2022-08-25T14:09:58;33.50;;;26.07;;
30605;SDS011;17371;51.328;3.860;2022-08-25T14:12:25;31.55;;;25.13;;
30605;SDS011;17371;51.328;3.860;2022-08-25T14:14:57;31.52;;;24.02;;
30605;SDS011;17371;51.328;3.860;2022-08-25T14:17:24;33.77;;;24.97;;
30605;SDS011;17371;51.328;3.860;2022-08-25T14:19:50;30.15;;;22.42;;
30605;SDS011;17371;51.328;3.860;2022-08-25T14:22:15;29.10;;;21.47;;
30605;SDS011;17371;51.328;3.860;2022-08-25T14:24:40;28.83;;;21.00;;
30605;SDS011;17371;51.328;3.860;2022-08-25T14:27:06;26.47;;;17.37;;
30605;SDS011;17371;51.328;3.860;2022-08-25T14:29:31;24.53;;;15.60;;
30605;SDS011;17371;51.328;3.860;2022-08-25T14:31:58;20.80;;;14.85;;
30605;SDS011;17371;51.328;3.860;2022-08-25T14:34:25;21.40;;;14.03;;
30605;SDS011;17371;51.328;3.860;2022-08-25T14:36:51;26.80;;;13.02;;
30605;SDS011;17371;51.328;3.860;2022-08-25T14:39:17;22.75;;;12.63;;
30605;SDS011;17371;51.328;3.860;2022-08-25T14:41:43;21.30;;;12.97;;
30605;SDS011;17371;51.328;3.860;2022-08-25T14:44:09;19.10;;;11.77;;
30605;SDS011;17371;51.328;3.860;2022-08-25T14:46:34;18.10;;;11.23;;